createdAt,value
2019-03-27T00:00:09.490Z,3.30
2019-03-27T00:02:38.031Z,3.07
2019-03-27T00:05:06.698Z,2.60
2019-03-27T00:07:35.152Z,3.13
2019-03-27T00:10:05.543Z,3.60
2019-03-27T00:12:34.051Z,3.13
2019-03-27T00:15:12.801Z,3.50
2019-03-27T00:17:32.716Z,3.10
2019-03-27T00:20:01.198Z,3.80
2019-03-27T00:22:29.655Z,3.13
2019-03-27T00:24:58.127Z,3.40
2019-03-27T00:27:26.651Z,3.30
2019-03-27T00:29:55.105Z,3.33
2019-03-27T00:32:23.572Z,3.30
2019-03-27T00:34:52.067Z,3.30
2019-03-27T00:37:20.534Z,2.93
2019-03-27T00:39:48.986Z,3.53
2019-03-27T00:42:17.960Z,3.20
2019-03-27T00:44:46.412Z,3.13
2019-03-27T00:47:14.870Z,3.00
2019-03-27T00:49:43.394Z,2.70
2019-03-27T00:52:11.856Z,4.27
2019-03-27T00:54:40.405Z,4.13
2019-03-27T00:57:08.889Z,3.00
2019-03-27T00:59:37.363Z,3.40
2019-03-27T01:02:05.827Z,4.20
2019-03-27T01:04:34.336Z,3.30
2019-03-27T01:07:03.196Z,3.57
2019-03-27T01:09:31.643Z,3.30
2019-03-27T01:12:00.156Z,3.27
2019-03-27T01:14:28.613Z,3.07
2019-03-27T01:16:57.226Z,4.63
2019-03-27T01:19:25.712Z,3.97
2019-03-27T01:21:54.180Z,4.37
2019-03-27T01:24:22.636Z,3.47
2019-03-27T01:26:51.135Z,3.70
2019-03-27T01:29:19.605Z,3.73
2019-03-27T01:31:48.058Z,3.57
2019-03-27T01:34:16.573Z,4.10
2019-03-27T01:36:45.030Z,3.80
2019-03-27T01:39:13.483Z,4.00
2019-03-27T01:41:41.996Z,3.77
2019-03-27T01:44:10.448Z,3.90
2019-03-27T01:46:38.912Z,3.80
2019-03-27T01:49:07.432Z,3.73
2019-03-27T01:51:35.885Z,3.50
2019-03-27T01:54:04.365Z,3.90
2019-03-27T01:56:32.861Z,3.80
2019-03-27T01:59:01.325Z,3.60
2019-03-27T02:01:29.788Z,3.30
2019-03-27T02:03:58.273Z,4.17
2019-03-27T02:06:26.727Z,3.53
2019-03-27T02:08:55.309Z,3.53
2019-03-27T02:11:23.811Z,3.57
2019-03-27T02:13:52.264Z,4.33
2019-03-27T02:16:20.718Z,3.43
2019-03-27T02:18:49.234Z,3.73
2019-03-27T02:21:17.706Z,3.73
2019-03-27T02:23:46.178Z,4.20
2019-03-27T02:26:14.677Z,3.73
2019-03-27T02:28:43.127Z,2.70
2019-03-27T02:31:11.604Z,4.10
2019-03-27T02:33:40.110Z,4.03
2019-03-27T02:36:08.557Z,3.50
2019-03-27T02:38:37.041Z,4.20
2019-03-27T02:41:05.518Z,3.73
2019-03-27T02:43:33.952Z,3.60
2019-03-27T02:46:02.414Z,3.70
2019-03-27T02:48:30.899Z,3.93
2019-03-27T02:50:59.369Z,3.10
2019-03-27T02:53:27.812Z,3.80
2019-03-27T02:55:56.319Z,4.10
2019-03-27T02:58:24.782Z,5.37
2019-03-27T03:00:53.239Z,4.80
2019-03-27T03:03:21.736Z,4.30
2019-03-27T03:05:50.199Z,3.70
2019-03-27T03:08:18.653Z,4.87
2019-03-27T03:10:47.920Z,3.70
2019-03-27T03:13:16.360Z,4.20
2019-03-27T03:15:44.967Z,4.20
2019-03-27T03:18:13.449Z,5.00
2019-03-27T03:20:41.921Z,4.57
2019-03-27T03:23:10.377Z,4.57
2019-03-27T03:25:38.853Z,4.40
2019-03-27T03:28:07.314Z,4.50
2019-03-27T03:30:35.792Z,4.57
2019-03-27T03:33:04.292Z,5.13
2019-03-27T03:35:32.801Z,5.30
2019-03-27T03:38:01.250Z,5.27
2019-03-27T03:40:29.735Z,5.13
2019-03-27T03:42:58.205Z,6.27
2019-03-27T03:45:26.669Z,6.03
2019-03-27T03:47:55.165Z,5.30
2019-03-27T03:50:26.795Z,5.20
2019-03-27T03:52:55.270Z,6.13
2019-03-27T03:55:23.911Z,5.50
2019-03-27T03:57:52.437Z,6.60
2019-03-27T04:00:20.884Z,5.67
2019-03-27T04:02:49.943Z,6.00
2019-03-27T04:05:21.820Z,5.70
2019-03-27T04:07:50.277Z,5.87
2019-03-27T04:10:18.781Z,5.40
2019-03-27T04:12:47.284Z,5.97
2019-03-27T04:15:15.749Z,4.87
2019-03-27T04:17:44.283Z,6.27
2019-03-27T04:20:12.784Z,5.07
2019-03-27T04:22:41.239Z,6.47
2019-03-27T04:25:09.747Z,6.00
2019-03-27T04:27:38.199Z,7.33
2019-03-27T04:30:07.344Z,6.00
2019-03-27T04:32:35.784Z,5.60
2019-03-27T04:35:05.179Z,9.73
2019-03-27T04:37:33.634Z,5.97
2019-03-27T04:40:02.142Z,5.83
2019-03-27T04:42:30.595Z,5.73
2019-03-27T04:44:59.047Z,6.33
2019-03-27T04:47:32.501Z,6.07
2019-03-27T04:49:57.743Z,5.80
2019-03-27T04:52:26.183Z,5.67
2019-03-27T04:54:54.672Z,6.17
2019-03-27T04:57:23.152Z,7.37
2019-03-27T04:59:51.580Z,6.63
2019-03-27T05:02:20.076Z,5.40
2019-03-27T05:04:48.810Z,6.70
2019-03-27T05:07:17.257Z,7.20
2019-03-27T05:09:45.785Z,6.80
2019-03-27T05:12:14.241Z,6.93
2019-03-27T05:14:43.851Z,5.93
2019-03-27T05:17:12.326Z,6.20
2019-03-27T05:19:40.785Z,6.73
2019-03-27T05:22:09.244Z,5.47
2019-03-27T05:24:37.749Z,5.97
2019-03-27T05:27:06.219Z,5.30
2019-03-27T05:29:34.664Z,3.40
2019-03-27T05:32:03.159Z,4.50
2019-03-27T05:34:31.619Z,4.33
2019-03-27T05:37:00.141Z,4.27
2019-03-27T05:39:28.637Z,4.30
2019-03-27T05:41:57.105Z,4.50
2019-03-27T05:44:25.567Z,4.37
2019-03-27T05:46:54.054Z,6.00
2019-03-27T05:49:22.569Z,4.73
2019-03-27T05:51:51.045Z,4.20
2019-03-27T05:54:19.532Z,3.87
2019-03-27T05:56:48.003Z,4.90
2019-03-27T05:59:16.453Z,4.23
2019-03-27T06:01:44.949Z,3.70
2019-03-27T06:04:13.401Z,4.20
2019-03-27T06:06:41.856Z,3.90
2019-03-27T06:09:10.380Z,5.07
2019-03-27T06:11:38.817Z,4.93
2019-03-27T06:14:07.273Z,4.90
2019-03-27T06:16:35.898Z,4.87
2019-03-27T06:19:04.366Z,4.17
2019-03-27T06:21:32.833Z,3.60
2019-03-27T06:24:01.408Z,3.90
2019-03-27T06:26:29.910Z,5.83
2019-03-27T06:28:58.349Z,4.30
2019-03-27T06:31:26.817Z,5.17
2019-03-27T06:33:55.325Z,5.53
2019-03-27T06:36:23.811Z,4.97
2019-03-27T06:38:52.377Z,5.03
2019-03-27T06:41:20.865Z,6.50
2019-03-27T06:43:49.320Z,5.73
2019-03-27T06:46:17.822Z,6.30
2019-03-27T06:48:46.319Z,6.67
2019-03-27T06:51:14.851Z,7.00
2019-03-27T06:53:43.340Z,7.10
2019-03-27T06:56:13.429Z,6.30
2019-03-27T06:58:53.851Z,6.00
2019-03-27T07:01:12.115Z,7.30
2019-03-27T07:03:40.576Z,6.60
2019-03-27T07:06:09.056Z,6.93
2019-03-27T07:08:37.546Z,5.60
2019-03-27T07:11:06.026Z,5.93
2019-03-27T07:13:34.469Z,5.93
2019-03-27T07:16:02.991Z,6.00
2019-03-27T07:18:40.152Z,5.80
2019-03-27T07:21:02.640Z,5.37
2019-03-27T07:23:31.127Z,5.83
2019-03-27T07:25:59.572Z,5.83
2019-03-27T07:28:28.048Z,6.80
2019-03-27T07:30:56.568Z,6.10
2019-03-27T07:33:25.022Z,5.30
2019-03-27T07:35:53.489Z,5.10
2019-03-27T07:38:21.958Z,5.13
2019-03-27T07:40:50.416Z,6.47
2019-03-27T07:43:18.931Z,5.47
2019-03-27T07:45:47.414Z,6.17
2019-03-27T07:48:15.881Z,6.60
2019-03-27T07:50:44.333Z,4.97
2019-03-27T07:53:12.840Z,4.60
2019-03-27T07:55:41.319Z,6.33
2019-03-27T07:58:09.772Z,4.93
2019-03-27T08:00:38.262Z,6.67
2019-03-27T08:03:06.715Z,5.20
2019-03-27T08:05:35.169Z,5.67
2019-03-27T08:08:03.659Z,4.87
2019-03-27T08:10:32.112Z,4.40
2019-03-27T08:13:00.581Z,4.73
2019-03-27T08:15:29.078Z,4.60
2019-03-27T08:17:57.532Z,5.17
2019-03-27T08:20:26.132Z,3.80
2019-03-27T08:22:54.624Z,4.50
2019-03-27T08:25:23.090Z,4.97
2019-03-27T08:27:51.551Z,4.70
2019-03-27T08:30:20.180Z,4.93
2019-03-27T08:32:48.632Z,5.50
2019-03-27T08:35:17.161Z,5.00
2019-03-27T08:37:46.032Z,4.70
2019-03-27T08:40:14.969Z,5.33
2019-03-27T08:42:43.589Z,4.20
2019-03-27T08:45:12.510Z,4.80
2019-03-27T08:47:41.004Z,4.10
2019-03-27T08:50:10.371Z,4.83
2019-03-27T08:52:38.876Z,4.47
2019-03-27T08:55:07.687Z,4.60
2019-03-27T08:57:36.318Z,4.20
2019-03-27T09:00:10.062Z,4.50
2019-03-27T09:02:38.575Z,3.60
2019-03-27T09:05:08.091Z,4.03
2019-03-27T09:07:36.672Z,4.10
2019-03-27T09:10:10.394Z,3.30
2019-03-27T09:12:39.623Z,4.40
2019-03-27T09:15:09.295Z,4.10
2019-03-27T09:17:37.762Z,4.93
2019-03-27T09:20:07.091Z,4.50
2019-03-27T09:22:35.815Z,3.83
2019-03-27T09:25:05.998Z,4.83
2019-03-27T09:27:34.455Z,3.70
2019-03-27T09:30:05.777Z,3.27
2019-03-27T09:32:35.930Z,4.17
2019-03-27T09:35:07.695Z,3.63
2019-03-27T09:37:36.224Z,2.57
2019-03-27T09:40:07.524Z,3.80
2019-03-27T09:42:37.793Z,3.90
2019-03-27T09:45:09.583Z,3.50
2019-03-27T09:47:38.222Z,4.07
2019-03-27T09:50:06.893Z,4.10
2019-03-27T09:52:35.426Z,3.53
2019-03-27T09:55:05.423Z,3.50
2019-03-27T09:57:33.909Z,4.00
2019-03-27T10:00:02.377Z,3.60
2019-03-27T10:02:30.845Z,4.10
2019-03-27T10:04:59.331Z,3.97
2019-03-27T10:07:27.785Z,3.10
2019-03-27T10:09:56.248Z,3.43
2019-03-27T10:12:24.758Z,3.80
2019-03-27T10:14:53.187Z,3.37
2019-03-27T10:17:21.627Z,3.43
2019-03-27T10:20:02.754Z,3.33
2019-03-27T10:22:20.320Z,3.30
2019-03-27T10:24:48.894Z,2.77
2019-03-27T10:27:17.409Z,3.00
2019-03-27T10:29:45.866Z,3.00
2019-03-27T10:32:14.321Z,3.03
2019-03-27T10:34:42.835Z,3.00
2019-03-27T10:37:11.304Z,2.67
2019-03-27T10:39:39.770Z,3.27
2019-03-27T10:42:08.273Z,2.80
2019-03-27T10:44:36.731Z,2.73
2019-03-27T10:47:05.185Z,3.20
2019-03-27T10:49:34.533Z,2.93
2019-03-27T10:52:03.792Z,2.80
2019-03-27T10:54:32.236Z,2.97
2019-03-27T10:57:00.767Z,3.40
2019-03-27T10:59:29.240Z,4.33
2019-03-27T11:01:57.723Z,3.90
2019-03-27T11:04:26.204Z,3.47
2019-03-27T11:06:54.690Z,3.60
2019-03-27T11:09:23.140Z,3.77
2019-03-27T11:11:51.625Z,4.37
2019-03-27T11:14:20.095Z,3.10
2019-03-27T11:16:48.635Z,4.17
2019-03-27T11:19:17.140Z,3.70
2019-03-27T11:21:45.593Z,3.80
2019-03-27T11:24:14.054Z,3.87
2019-03-27T11:26:42.699Z,4.37
2019-03-27T11:29:11.140Z,4.17
2019-03-27T11:31:39.682Z,3.90
2019-03-27T11:34:08.198Z,3.97
2019-03-27T11:36:36.665Z,3.70
2019-03-27T11:39:08.311Z,3.70
2019-03-27T11:41:36.792Z,3.77
2019-03-27T11:44:05.434Z,4.37
2019-03-27T11:46:33.883Z,3.30
2019-03-27T11:49:02.381Z,4.27
2019-03-27T11:51:30.858Z,3.70
2019-03-27T11:53:59.311Z,3.60
2019-03-27T11:56:27.839Z,4.33
2019-03-27T11:58:56.351Z,4.57
2019-03-27T12:01:24.821Z,3.90
2019-03-27T12:03:54.239Z,3.40
2019-03-27T12:06:22.865Z,3.70
2019-03-27T12:08:51.346Z,4.73
2019-03-27T12:11:19.881Z,4.20
2019-03-27T12:13:48.795Z,3.90
2019-03-27T12:16:17.270Z,3.90
2019-03-27T12:18:45.751Z,4.00
2019-03-27T12:21:14.658Z,4.40
2019-03-27T12:23:43.131Z,4.30
2019-03-27T12:26:11.724Z,4.73
2019-03-27T12:28:41.198Z,4.90
2019-03-27T12:31:09.670Z,4.50
2019-03-27T12:33:38.121Z,6.07
2019-03-27T12:36:06.587Z,5.97
2019-03-27T12:38:35.082Z,5.63
2019-03-27T12:41:03.551Z,5.53
2019-03-27T12:43:32.017Z,6.27
2019-03-27T12:46:00.555Z,5.30
2019-03-27T12:48:29.009Z,5.57
2019-03-27T12:50:57.477Z,5.60
2019-03-27T12:53:25.975Z,5.37
2019-03-27T12:55:54.439Z,5.37
2019-03-27T12:58:22.892Z,5.70
2019-03-27T13:00:51.378Z,6.07
2019-03-27T13:03:21.436Z,7.67
2019-03-27T13:05:49.888Z,8.73
2019-03-27T13:08:18.396Z,8.40
2019-03-27T13:10:46.859Z,8.43
2019-03-27T13:13:15.325Z,9.70
2019-03-27T13:15:43.973Z,8.90
2019-03-27T13:18:12.470Z,8.90
2019-03-27T13:20:40.959Z,11.00
2019-03-27T13:23:09.483Z,12.80
2019-03-27T13:25:37.957Z,12.80
2019-03-27T13:28:06.520Z,11.23
2019-03-27T13:30:35.158Z,11.93
2019-03-27T13:33:03.663Z,10.13
2019-03-27T13:35:32.129Z,14.20
2019-03-27T13:38:00.650Z,13.33
2019-03-27T13:40:29.133Z,13.53
2019-03-27T13:42:57.623Z,14.97
2019-03-27T13:45:27.072Z,14.83
2019-03-27T13:47:55.572Z,14.67
2019-03-27T13:50:24.199Z,16.37
2019-03-27T13:52:52.717Z,15.90
2019-03-27T13:55:21.176Z,14.67
2019-03-27T13:57:49.640Z,13.63
2019-03-27T14:00:18.539Z,12.70
2019-03-27T14:02:47.008Z,16.17
2019-03-27T14:05:15.846Z,14.03
2019-03-27T14:07:44.468Z,15.10
2019-03-27T14:10:13.437Z,14.30
2019-03-27T14:12:41.929Z,14.57
2019-03-27T14:15:11.063Z,14.07
2019-03-27T14:17:39.987Z,10.67
2019-03-27T14:20:09.304Z,11.70
2019-03-27T14:22:37.849Z,12.77
2019-03-27T14:25:10.194Z,9.93
2019-03-27T14:27:38.678Z,11.60
2019-03-27T14:30:10.027Z,12.07
2019-03-27T14:32:39.581Z,11.77
2019-03-27T14:35:09.021Z,14.83
2019-03-27T14:37:37.467Z,14.73
2019-03-27T14:40:07.492Z,12.77
2019-03-27T14:42:36.080Z,11.20
2019-03-27T14:45:08.764Z,12.50
2019-03-27T14:47:37.317Z,11.73
2019-03-27T14:50:09.077Z,9.30
2019-03-27T14:52:37.519Z,7.93
2019-03-27T14:55:07.466Z,8.67
2019-03-27T14:57:36.278Z,8.60
2019-03-27T15:00:07.715Z,9.43
2019-03-27T15:02:36.181Z,10.87
2019-03-27T15:05:06.258Z,11.93
2019-03-27T15:07:34.729Z,10.80
2019-03-27T15:10:03.864Z,11.87
2019-03-27T15:12:32.379Z,9.90
2019-03-27T15:15:00.862Z,12.20
2019-03-27T15:17:29.323Z,12.53
2019-03-27T15:19:57.850Z,11.63
2019-03-27T15:22:26.293Z,13.63
2019-03-27T15:24:54.769Z,14.60
2019-03-27T15:27:23.265Z,12.90
2019-03-27T15:29:51.729Z,11.60
2019-03-27T15:32:20.190Z,12.20
2019-03-27T15:34:48.764Z,10.87
2019-03-27T15:37:17.711Z,11.47
2019-03-27T15:39:46.173Z,9.47
2019-03-27T15:42:14.657Z,11.50
2019-03-27T15:44:43.112Z,11.47
2019-03-27T15:47:11.580Z,12.43
2019-03-27T15:49:40.180Z,13.83
2019-03-27T15:52:08.651Z,14.03
2019-03-27T15:54:37.114Z,15.33
2019-03-27T15:57:05.644Z,14.63
2019-03-27T15:59:34.080Z,15.40
2019-03-27T16:02:02.570Z,15.93
2019-03-27T16:04:31.056Z,13.30
2019-03-27T16:07:00.498Z,13.30
2019-03-27T16:09:28.975Z,13.70
2019-03-27T16:11:59.138Z,9.10
2019-03-27T16:14:27.594Z,8.40
2019-03-27T16:17:11.931Z,5.90
2019-03-27T16:19:26.342Z,5.90
2019-03-27T16:21:54.794Z,5.40
2019-03-27T16:24:23.237Z,4.60
2019-03-27T16:27:03.851Z,4.77
2019-03-27T16:29:21.948Z,6.93
2019-03-27T16:31:50.403Z,6.10
2019-03-27T16:34:18.882Z,6.23
2019-03-27T16:36:47.651Z,5.70
2019-03-27T16:39:16.137Z,5.70
2019-03-27T16:41:44.634Z,5.10
2019-03-27T16:44:13.173Z,5.67
2019-03-27T16:46:41.639Z,3.90
2019-03-27T16:49:10.124Z,4.60
2019-03-27T16:51:38.571Z,3.40
2019-03-27T16:54:07.025Z,3.37
2019-03-27T16:56:35.488Z,4.40
2019-03-27T16:59:03.954Z,4.43
2019-03-27T17:01:32.401Z,4.80
2019-03-27T17:04:00.930Z,5.00
2019-03-27T17:06:29.377Z,5.23
2019-03-27T17:08:57.833Z,5.60
2019-03-27T17:11:26.428Z,4.13
2019-03-27T17:13:54.869Z,4.77
2019-03-27T17:16:23.318Z,4.57
2019-03-27T17:18:51.819Z,4.47
2019-03-27T17:21:20.282Z,5.43
2019-03-27T17:23:48.757Z,4.90
2019-03-27T17:26:17.297Z,5.00
2019-03-27T17:28:45.785Z,5.10
2019-03-27T17:31:14.360Z,5.43
2019-03-27T17:33:43.224Z,4.67
2019-03-27T17:36:11.851Z,4.53
2019-03-27T17:38:41.609Z,5.30
2019-03-27T17:41:10.236Z,5.10
2019-03-27T17:43:38.727Z,3.73
2019-03-27T17:46:07.256Z,4.20
2019-03-27T17:48:36.132Z,4.57
2019-03-27T17:51:05.065Z,5.93
2019-03-27T17:53:33.791Z,4.97
2019-03-27T17:56:02.651Z,4.97
2019-03-27T17:58:31.333Z,5.20
2019-03-27T18:01:01.708Z,5.83
2019-03-27T18:03:30.843Z,5.17
2019-03-27T18:05:59.446Z,5.47
2019-03-27T18:08:28.083Z,5.17
2019-03-27T18:10:57.281Z,6.90
2019-03-27T18:13:26.195Z,5.87
2019-03-27T18:15:54.694Z,5.00
2019-03-27T18:18:23.208Z,5.60
2019-03-27T18:20:51.670Z,5.40
2019-03-27T18:23:20.124Z,5.60
2019-03-27T18:25:48.664Z,4.93
2019-03-27T18:28:17.144Z,5.43
2019-03-27T18:30:45.665Z,5.47
2019-03-27T18:33:14.174Z,5.43
2019-03-27T18:35:42.693Z,6.10
2019-03-27T18:38:11.150Z,5.50
2019-03-27T18:40:39.702Z,6.20
2019-03-27T18:43:08.164Z,6.03
2019-03-27T18:45:36.622Z,6.90
2019-03-27T18:48:05.123Z,6.50
2019-03-27T18:50:33.578Z,5.90
2019-03-27T18:53:02.040Z,6.90
2019-03-27T18:55:30.548Z,7.20
2019-03-27T18:58:00.648Z,7.73
2019-03-27T19:00:29.427Z,7.77
2019-03-27T19:02:57.995Z,7.43
2019-03-27T19:05:26.458Z,6.60
2019-03-27T19:07:54.910Z,7.77
2019-03-27T19:10:23.402Z,7.73
2019-03-27T19:12:51.857Z,8.50
2019-03-27T19:15:20.306Z,6.00
2019-03-27T19:17:48.838Z,6.80
2019-03-27T19:20:17.364Z,7.63
2019-03-27T19:22:45.893Z,7.07
2019-03-27T19:25:14.388Z,7.67
2019-03-27T19:27:42.840Z,8.60
2019-03-27T19:30:11.496Z,7.20
2019-03-27T19:32:40.000Z,8.87
2019-03-27T19:35:08.457Z,8.90
2019-03-27T19:37:36.909Z,8.13
2019-03-27T19:40:06.059Z,7.93
2019-03-27T19:42:34.671Z,9.03
2019-03-27T19:45:03.741Z,9.00
2019-03-27T19:47:32.235Z,10.10
2019-03-27T19:50:00.711Z,9.40
2019-03-27T19:52:29.161Z,9.20
2019-03-27T19:54:57.662Z,9.70
2019-03-27T19:57:26.120Z,9.53
2019-03-27T19:59:54.573Z,8.80
2019-03-27T20:02:23.061Z,10.67
2019-03-27T20:04:51.507Z,8.83
2019-03-27T20:07:19.971Z,9.37
2019-03-27T20:09:48.515Z,9.90
2019-03-27T20:12:16.935Z,8.73
2019-03-27T20:14:45.392Z,10.50
2019-03-27T20:17:13.914Z,11.47
2019-03-27T20:19:42.381Z,11.07
2019-03-27T20:22:10.877Z,11.00
2019-03-27T20:24:41.190Z,8.23
2019-03-27T20:27:09.543Z,9.93
2019-03-27T20:29:38.006Z,9.27
2019-03-27T20:32:06.519Z,11.97
2019-03-27T20:34:37.721Z,9.50
2019-03-27T20:37:06.185Z,10.90
2019-03-27T20:39:34.679Z,10.20
2019-03-27T20:42:03.221Z,9.87
2019-03-27T20:44:31.681Z,10.53
2019-03-27T20:47:00.217Z,9.83
2019-03-27T20:49:28.655Z,9.30
2019-03-27T20:51:57.112Z,8.60
2019-03-27T20:54:26.005Z,9.50
2019-03-27T20:56:54.593Z,8.87
2019-03-27T20:59:23.052Z,9.67
2019-03-27T21:01:51.628Z,9.97
2019-03-27T21:04:20.082Z,8.77
2019-03-27T21:06:48.527Z,7.33
2019-03-27T21:09:17.034Z,7.43
2019-03-27T21:11:45.486Z,8.10
2019-03-27T21:14:13.942Z,8.93
2019-03-27T21:16:42.409Z,8.13
2019-03-27T21:19:10.881Z,7.17
2019-03-27T21:21:41.798Z,8.50
2019-03-27T21:24:09.609Z,8.50
2019-03-27T21:26:38.052Z,8.50
2019-03-27T21:29:06.511Z,8.07
2019-03-27T21:31:35.007Z,7.70
2019-03-27T21:34:03.464Z,6.93
2019-03-27T21:36:31.921Z,7.00
2019-03-27T21:39:00.388Z,7.60
2019-03-27T21:41:28.904Z,7.27
2019-03-27T21:43:57.491Z,7.90
2019-03-27T21:46:25.990Z,6.90
2019-03-27T21:48:54.438Z,6.30
2019-03-27T21:51:22.898Z,6.30
2019-03-27T21:53:51.387Z,6.70
2019-03-27T21:56:19.844Z,6.03
2019-03-27T21:58:48.304Z,6.33
2019-03-27T22:01:16.806Z,6.20
2019-03-27T22:03:45.254Z,6.67
2019-03-27T22:06:13.696Z,5.53
2019-03-27T22:08:42.203Z,5.40
2019-03-27T22:11:10.646Z,5.90
2019-03-27T22:13:39.087Z,5.67
2019-03-27T22:16:07.571Z,5.87
2019-03-27T22:18:36.028Z,5.43
2019-03-27T22:21:04.484Z,5.50
2019-03-27T22:23:32.967Z,5.90
2019-03-27T22:26:01.431Z,5.87
2019-03-27T22:28:29.894Z,5.80
2019-03-27T22:30:58.396Z,6.00
2019-03-27T22:33:26.883Z,6.27
2019-03-27T22:35:55.327Z,5.70
2019-03-27T22:38:23.849Z,6.50
2019-03-27T22:40:52.297Z,5.80
2019-03-27T22:43:20.741Z,6.20
2019-03-27T22:45:50.298Z,5.70
2019-03-27T22:48:18.741Z,5.90
2019-03-27T22:50:47.181Z,6.50
2019-03-27T22:53:15.692Z,6.17
2019-03-27T22:55:50.347Z,5.23
2019-03-27T22:58:14.309Z,5.20
2019-03-27T23:00:49.213Z,5.67
2019-03-27T23:03:18.917Z,5.40
2019-03-27T23:05:47.614Z,5.07
2019-03-27T23:08:16.092Z,4.87
2019-03-27T23:10:44.531Z,6.10
2019-03-27T23:13:13.157Z,4.83
2019-03-27T23:15:41.732Z,5.43
2019-03-27T23:18:10.196Z,5.10
2019-03-27T23:20:38.647Z,5.80
2019-03-27T23:23:07.138Z,5.73
2019-03-27T23:25:35.583Z,6.17
2019-03-27T23:28:04.019Z,6.00
2019-03-27T23:30:32.517Z,7.30
2019-03-27T23:33:00.972Z,6.50
2019-03-27T23:35:29.414Z,6.33
2019-03-27T23:37:57.913Z,6.37
2019-03-27T23:40:26.432Z,5.20
2019-03-27T23:42:54.901Z,6.07
2019-03-27T23:45:23.397Z,6.23
2019-03-27T23:47:51.997Z,6.30
2019-03-27T23:50:20.463Z,4.40
2019-03-27T23:52:48.974Z,4.97
2019-03-27T23:55:17.435Z,5.80
2019-03-27T23:57:45.882Z,6.70
